Aviation Digital Data Service (ADDS)

Output produced by METARs form (0044 UTC 25 April 2019)
found at http://www.aviationweather.gov/metar/data/
 
METAR text: KBOI 242353Z 32011KT 10SM CLR 21/M01 A3007 RMK AO2 SLP167 T02061011 10211 20178 55009
Conditions at: KBOI (BOISE , ID, US) observed 2353 UTC 24 April 2019
Temperature: 20.6°C (69°F)
Dewpoint: -1.1°C (30°F) [RH = 23%]
Pressure (altimeter): 30.07 inches Hg (1018.4 mb)
[Sea-level pressure: 1016.7 mb]
Winds: from the NW (320 degrees) at 13 MPH (11 knots; 5.7 m/s)
Visibility: 10 or more miles (16+ km)
Ceiling: at least 12,000 feet AGL
Clouds: sky clear below 12,000 feet AGL
Weather: no significant weather observed at this time

METAR text: KBOI 242253Z 31014G22KT 10SM CLR 21/00 A3007 RMK AO2 SLP167 T02110000
Conditions at: KBOI (BOISE , ID, US) observed 2253 UTC 24 April 2019
Temperature: 21.1°C (70°F)
Dewpoint: 0.0°C (32°F) [RH = 24%]
Pressure (altimeter): 30.07 inches Hg (1018.4 mb)
[Sea-level pressure: 1016.7 mb]
Winds: from the NW (310 degrees) at 16 MPH (14 knots; 7.2 m/s)
gusting to 25 MPH (22 knots; 11.3 m/s)
Visibility: 10 or more miles (16+ km)
Ceiling: at least 12,000 feet AGL
Clouds: sky clear below 12,000 feet AGL
Weather: no significant weather observed at this time

METAR text: KBOI 242153Z 34013G22KT 10SM CLR 21/02 A3008 RMK AO2 SLP172 T02060017
Conditions at: KBOI (BOISE , ID, US) observed 2153 UTC 24 April 2019
Temperature: 20.6°C (69°F)
Dewpoint: 1.7°C (35°F) [RH = 28%]
Pressure (altimeter): 30.08 inches Hg (1018.7 mb)
[Sea-level pressure: 1017.2 mb]
Winds: from the NNW (340 degrees) at 15 MPH (13 knots; 6.7 m/s)
gusting to 25 MPH (22 knots; 11.3 m/s)
Visibility: 10 or more miles (16+ km)
Ceiling: at least 12,000 feet AGL
Clouds: sky clear below 12,000 feet AGL
Weather: no significant weather observed at this time

METAR text: KBOI 242053Z 33011G23KT 10SM FEW048 20/06 A3010 RMK AO2 SLP177 T02000061 58003
Conditions at: KBOI (BOISE , ID, US) observed 2053 UTC 24 April 2019
Temperature: 20.0°C (68°F)
Dewpoint: 6.1°C (43°F) [RH = 40%]
Pressure (altimeter): 30.10 inches Hg (1019.4 mb)
[Sea-level pressure: 1017.7 mb]
Winds: from the NNW (330 degrees) at 13 MPH (11 knots; 5.7 m/s)
gusting to 26 MPH (23 knots; 11.8 m/s)
Visibility: 10 or more miles (16+ km)
Ceiling: at least 12,000 feet AGL
Clouds: few clouds at 4800 feet AGL
Weather: no significant weather observed at this time

METAR text: KBOI 241953Z 31014G21KT 10SM CLR 19/07 A3010 RMK AO2 SLP180 T01890067
Conditions at: KBOI (BOISE , ID, US) observed 1953 UTC 24 April 2019
Temperature: 18.9°C (66°F)
Dewpoint: 6.7°C (44°F) [RH = 45%]
Pressure (altimeter): 30.10 inches Hg (1019.4 mb)
[Sea-level pressure: 1018.0 mb]
Winds: from the NW (310 degrees) at 16 MPH (14 knots; 7.2 m/s)
gusting to 24 MPH (21 knots; 10.8 m/s)
Visibility: 10 or more miles (16+ km)
Ceiling: at least 12,000 feet AGL
Clouds: sky clear below 12,000 feet AGL
Weather: no significant weather observed at this time

METAR text: KBOI 241853Z 33010G21KT 10SM CLR 19/07 A3011 RMK AO2 SLP181 T01890067
Conditions at: KBOI (BOISE , ID, US) observed 1853 UTC 24 April 2019
Temperature: 18.9°C (66°F)
Dewpoint: 6.7°C (44°F) [RH = 45%]
Pressure (altimeter): 30.11 inches Hg (1019.7 mb)
[Sea-level pressure: 1018.1 mb]
Winds: from the NNW (330 degrees) at 12 MPH (10 knots; 5.1 m/s)
gusting to 24 MPH (21 knots; 10.8 m/s)
Visibility: 10 or more miles (16+ km)
Ceiling: at least 12,000 feet AGL
Clouds: sky clear below 12,000 feet AGL
Weather: no significant weather observed at this time

METAR text: KBOI 241753Z 34010KT 10SM SCT046 SCT120 18/09 A3011 RMK AO2 SLP181 T01780089 10178 20100 50000
Conditions at: KBOI (BOISE , ID, US) observed 1753 UTC 24 April 2019
Temperature: 17.8°C (64°F)
Dewpoint: 8.9°C (48°F) [RH = 56%]
Pressure (altimeter): 30.11 inches Hg (1019.7 mb)
[Sea-level pressure: 1018.1 mb]
Winds: from the NNW (340 degrees) at 12 MPH (10 knots; 5.1 m/s)
Visibility: 10 or more miles (16+ km)
Ceiling: at least 12,000 feet AGL
Clouds: scattered clouds at 4600 feet AGL
scattered clouds at 12000 feet AGL
Weather: no significant weather observed at this time

METAR text: KBOI 241653Z 30007KT 10SM FEW120 16/10 A3011 RMK AO2 SLP183 T01560100
Conditions at: KBOI (BOISE , ID, US) observed 1653 UTC 24 April 2019
Temperature: 15.6°C (60°F)
Dewpoint: 10.0°C (50°F) [RH = 69%]
Pressure (altimeter): 30.11 inches Hg (1019.7 mb)
[Sea-level pressure: 1018.3 mb]
Winds: from the WNW (300 degrees) at 8 MPH (7 knots; 3.6 m/s)
Visibility: 10 or more miles (16+ km)
Ceiling: at least 12,000 feet AGL
Clouds: few clouds at 12000 feet AGL
Weather: no significant weather observed at this time

METAR text: KBOI 241553Z 00000KT 10SM SCT049 BKN120 13/10 A3011 RMK AO2 SLP183 T01330100
Conditions at: KBOI (BOISE , ID, US) observed 1553 UTC 24 April 2019
Temperature: 13.3°C (56°F)
Dewpoint: 10.0°C (50°F) [RH = 80%]
Pressure (altimeter): 30.11 inches Hg (1019.7 mb)
[Sea-level pressure: 1018.3 mb]
Winds: calm
Visibility: 10 or more miles (16+ km)
Ceiling: 12000 feet AGL
Clouds: scattered clouds at 4900 feet AGL
broken clouds at 12000 feet AGL
Weather: no significant weather observed at this time

METAR text: KBOI 241453Z 29004KT 10SM BKN060 OVC120 12/10 A3011 RMK AO2 SLP182 T01170100 53012
Conditions at: KBOI (BOISE , ID, US) observed 1453 UTC 24 April 2019
Temperature: 11.7°C (53°F)
Dewpoint: 10.0°C (50°F) [RH = 89%]
Pressure (altimeter): 30.11 inches Hg (1019.7 mb)
[Sea-level pressure: 1018.2 mb]
Winds: from the WNW (290 degrees) at 5 MPH (4 knots; 2.1 m/s)
Visibility: 10 or more miles (16+ km)
Ceiling: 6000 feet AGL
Clouds: broken clouds at 6000 feet AGL
overcast cloud deck at 12000 feet AGL
Weather: no significant weather observed at this time

METAR text: KBOI 241353Z 00000KT 8SM SCT060 BKN110 11/09 A3009 RMK AO2 SLP175 T01060094
Conditions at: KBOI (BOISE , ID, US) observed 1353 UTC 24 April 2019
Temperature: 10.6°C (51°F)
Dewpoint: 9.4°C (49°F) [RH = 92%]
Pressure (altimeter): 30.09 inches Hg (1019.0 mb)
[Sea-level pressure: 1017.5 mb]
Winds: calm
Visibility: 8 miles (13 km)
Ceiling: 11000 feet AGL
Clouds: scattered clouds at 6000 feet AGL
broken clouds at 11000 feet AGL
Weather: no significant weather observed at this time

METAR text: KBOI 241253Z 19003KT 10SM FEW004 FEW055 BKN090 10/09 A3007 RMK AO2 SLP167 T01000089
Conditions at: KBOI (BOISE , ID, US) observed 1253 UTC 24 April 2019
Temperature: 10.0°C (50°F)
Dewpoint: 8.9°C (48°F) [RH = 93%]
Pressure (altimeter): 30.07 inches Hg (1018.4 mb)
[Sea-level pressure: 1016.7 mb]
Winds: from the S (190 degrees) at 3 MPH (3 knots; 1.5 m/s)
Visibility: 10 or more miles (16+ km)
Ceiling: 9000 feet AGL
Clouds: few clouds at 400 feet AGL
few clouds at 5500 feet AGL
broken clouds at 9000 feet AGL
Weather: no significant weather observed at this time

METAR text: KBOI 241250Z 19003KT 10SM FEW004 BKN090 10/09 A3007 RMK AO2
Conditions at: KBOI (BOISE , ID, US) observed 1250 UTC 24 April 2019
Temperature: 10.0°C (50°F)
Dewpoint: 9.0°C (48°F) [RH = 93%]
Pressure (altimeter): 30.07 inches Hg (1018.4 mb)
Winds: from the S (190 degrees) at 3 MPH (3 knots; 1.5 m/s)
Visibility: 10 or more miles (16+ km)
Ceiling: 9000 feet AGL
Clouds: few clouds at 400 feet AGL
broken clouds at 9000 feet AGL
Weather: no significant weather observed at this time

METAR text: KBOI 241222Z 00000KT 10SM BKN004 10/08 A3006 RMK AO2 T01000083
Conditions at: KBOI (BOISE , ID, US) observed 1222 UTC 24 April 2019
Temperature: 10.0°C (50°F)
Dewpoint: 8.3°C (47°F) [RH = 89%]
Pressure (altimeter): 30.06 inches Hg (1018.0 mb)
Winds: calm
Visibility: 10 or more miles (16+ km)
Ceiling: 400 feet AGL
Clouds: broken clouds at 400 feet AGL
Weather: no significant weather observed at this time

METAR text: KBOI 241153Z 00000KT 10SM FEW004 SCT090 11/08 A3006 RMK AO2 SLP161 70001 T01110083 10144 20100 53002
Conditions at: KBOI (BOISE , ID, US) observed 1153 UTC 24 April 2019
Temperature: 11.1°C (52°F)
Dewpoint: 8.3°C (47°F) [RH = 83%]
Pressure (altimeter): 30.06 inches Hg (1018.0 mb)
[Sea-level pressure: 1016.1 mb]
Winds: calm
Visibility: 10 or more miles (16+ km)
Ceiling: at least 12,000 feet AGL
Clouds: few clouds at 400 feet AGL
scattered clouds at 9000 feet AGL
Weather: no significant weather observed at this time

METAR text: KBOI 241053Z 16005KT 10SM CLR 11/08 A3005 RMK AO2 SLP160 T01060078
Conditions at: KBOI (BOISE , ID, US) observed 1053 UTC 24 April 2019
Temperature: 10.6°C (51°F)
Dewpoint: 7.8°C (46°F) [RH = 83%]
Pressure (altimeter): 30.05 inches Hg (1017.7 mb)
[Sea-level pressure: 1016.0 mb]
Winds: from the SSE (160 degrees) at 6 MPH (5 knots; 2.6 m/s)
Visibility: 10 or more miles (16+ km)
Ceiling: at least 12,000 feet AGL
Clouds: sky clear below 12,000 feet AGL
Weather: no significant weather observed at this time

METAR text: KBOI 240953Z 17003KT 10SM CLR 11/08 A3004 RMK AO2 SLP155 T01110083
Conditions at: KBOI (BOISE , ID, US) observed 0953 UTC 24 April 2019
Temperature: 11.1°C (52°F)
Dewpoint: 8.3°C (47°F) [RH = 83%]
Pressure (altimeter): 30.04 inches Hg (1017.4 mb)
[Sea-level pressure: 1015.5 mb]
Winds: from the S (170 degrees) at 3 MPH (3 knots; 1.5 m/s)
Visibility: 10 or more miles (16+ km)
Ceiling: at least 12,000 feet AGL
Clouds: sky clear below 12,000 feet AGL
Weather: no significant weather observed at this time

METAR text: KBOI 240853Z 13004KT 10SM CLR 12/09 A3005 RMK AO2 SLP159 T01170089 50001
Conditions at: KBOI (BOISE , ID, US) observed 0853 UTC 24 April 2019
Temperature: 11.7°C (53°F)
Dewpoint: 8.9°C (48°F) [RH = 83%]
Pressure (altimeter): 30.05 inches Hg (1017.7 mb)
[Sea-level pressure: 1015.9 mb]
Winds: from the SE (130 degrees) at 5 MPH (4 knots; 2.1 m/s)
Visibility: 10 or more miles (16+ km)
Ceiling: at least 12,000 feet AGL
Clouds: sky clear below 12,000 feet AGL
Weather: no significant weather observed at this time

METAR text: KBOI 240753Z 00000KT 10SM CLR 13/11 A3006 RMK AO2 SLP160 T01330111
Conditions at: KBOI (BOISE , ID, US) observed 0753 UTC 24 April 2019
Temperature: 13.3°C (56°F)
Dewpoint: 11.1°C (52°F) [RH = 87%]
Pressure (altimeter): 30.06 inches Hg (1018.0 mb)
[Sea-level pressure: 1016.0 mb]
Winds: calm
Visibility: 10 or more miles (16+ km)
Ceiling: at least 12,000 feet AGL
Clouds: sky clear below 12,000 feet AGL
Weather: no significant weather observed at this time

METAR text: KBOI 240653Z 00000KT 10SM CLR 13/11 A3006 RMK AO2 SLP161 T01330106 402390083
Conditions at: KBOI (BOISE , ID, US) observed 0653 UTC 24 April 2019
Temperature: 13.3°C (56°F)
Dewpoint: 10.6°C (51°F) [RH = 84%]
Pressure (altimeter): 30.06 inches Hg (1018.0 mb)
[Sea-level pressure: 1016.1 mb]
Winds: calm
Visibility: 10 or more miles (16+ km)
Ceiling: at least 12,000 feet AGL
Clouds: sky clear below 12,000 feet AGL
Weather: no significant weather observed at this time

METAR text: KBOI 240553Z 00000KT 10SM CLR 14/12 A3005 RMK AO2 SLP158 60001 T01440117 10233 20144 50002
Conditions at: KBOI (BOISE , ID, US) observed 0553 UTC 24 April 2019
Temperature: 14.4°C (58°F)
Dewpoint: 11.7°C (53°F) [RH = 84%]
Pressure (altimeter): 30.05 inches Hg (1017.7 mb)
[Sea-level pressure: 1015.8 mb]
Winds: calm
Visibility: 10 or more miles (16+ km)
Ceiling: at least 12,000 feet AGL
Clouds: sky clear below 12,000 feet AGL
Weather: no significant weather observed at this time

METAR text: KBOI 240453Z 20003KT 10SM SCT085 16/12 A3005 RMK AO2 SLP160 T01560122
Conditions at: KBOI (BOISE , ID, US) observed 0453 UTC 24 April 2019
Temperature: 15.6°C (60°F)
Dewpoint: 12.2°C (54°F) [RH = 80%]
Pressure (altimeter): 30.05 inches Hg (1017.7 mb)
[Sea-level pressure: 1016.0 mb]
Winds: from the SSW (200 degrees) at 3 MPH (3 knots; 1.5 m/s)
Visibility: 10 or more miles (16+ km)
Ceiling: at least 12,000 feet AGL
Clouds: scattered clouds at 8500 feet AGL
Weather: no significant weather observed at this time

METAR text: KBOI 240353Z 05006KT 10SM FEW050 SCT080 OVC100 17/12 A3005 RMK AO2 RAB22E44 SLP163 P0001 T01670117
Conditions at: KBOI (BOISE , ID, US) observed 0353 UTC 24 April 2019
Temperature: 16.7°C (62°F)
Dewpoint: 11.7°C (53°F) [RH = 72%]
Pressure (altimeter): 30.05 inches Hg (1017.7 mb)
[Sea-level pressure: 1016.3 mb]
Winds: from the NE (50 degrees) at 7 MPH (6 knots; 3.1 m/s)
Visibility: 10 or more miles (16+ km)
Ceiling: 10000 feet AGL
Clouds: few clouds at 5000 feet AGL
scattered clouds at 8000 feet AGL
overcast cloud deck at 10000 feet AGL
Weather: no significant weather observed at this time

METAR text: KBOI 240253Z 33017G25KT 10SM BKN060 BKN080 OVC110 19/09 A3004 RMK AO2 SLP159 T01890094 55004
Conditions at: KBOI (BOISE , ID, US) observed 0253 UTC 24 April 2019
Temperature: 18.9°C (66°F)
Dewpoint: 9.4°C (49°F) [RH = 54%]
Pressure (altimeter): 30.04 inches Hg (1017.4 mb)
[Sea-level pressure: 1015.9 mb]
Winds: from the NNW (330 degrees) at 20 MPH (17 knots; 8.7 m/s)
gusting to 29 MPH (25 knots; 12.9 m/s)
Visibility: 10 or more miles (16+ km)
Ceiling: 6000 feet AGL
Clouds: broken clouds at 6000 feet AGL
broken clouds at 8000 feet AGL
overcast cloud deck at 11000 feet AGL
Weather: no significant weather observed at this time

METAR text: KBOI 240153Z 35006KT 10SM CLR 22/08 A3002 RMK AO2 SLP153 T02170078
Conditions at: KBOI (BOISE , ID, US) observed 0153 UTC 24 April 2019
Temperature: 21.7°C (71°F)
Dewpoint: 7.8°C (46°F) [RH = 41%]
Pressure (altimeter): 30.02 inches Hg (1016.7 mb)
[Sea-level pressure: 1015.3 mb]
Winds: from the N (350 degrees) at 7 MPH (6 knots; 3.1 m/s)
Visibility: 10 or more miles (16+ km)
Ceiling: at least 12,000 feet AGL
Clouds: sky clear below 12,000 feet AGL
Weather: no significant weather observed at this time

METAR text: KBOI 240053Z 01005KT 10SM CLR 23/07 A3004 RMK AO2 SLP158 T02280072
Conditions at: KBOI (BOISE , ID, US) observed 0053 UTC 24 April 2019
Temperature: 22.8°C (73°F)
Dewpoint: 7.2°C (45°F) [RH = 37%]
Pressure (altimeter): 30.04 inches Hg (1017.4 mb)
[Sea-level pressure: 1015.8 mb]
Winds: from the N (10 degrees) at 6 MPH (5 knots; 2.6 m/s)
Visibility: 10 or more miles (16+ km)
Ceiling: at least 12,000 feet AGL
Clouds: sky clear below 12,000 feet AGL
Weather: no significant weather observed at this time

METAR text: KBOI 232353Z 01007KT 10SM CLR 23/07 A3005 RMK AO2 SLP161 T02280067 10239 20194 57017
Conditions at: KBOI (BOISE , ID, US) observed 2353 UTC 23 April 2019
Temperature: 22.8°C (73°F)
Dewpoint: 6.7°C (44°F) [RH = 35%]
Pressure (altimeter): 30.05 inches Hg (1017.7 mb)
[Sea-level pressure: 1016.1 mb]
Winds: from the N (10 degrees) at 8 MPH (7 knots; 3.6 m/s)
Visibility: 10 or more miles (16+ km)
Ceiling: at least 12,000 feet AGL
Clouds: sky clear below 12,000 feet AGL
Weather: no significant weather observed at this time

METAR text: KBOI 232253Z 32013KT 10SM CLR 24/07 A3007 RMK AO2 SLP165 T02390067
Conditions at: KBOI (BOISE , ID, US) observed 2253 UTC 23 April 2019
Temperature: 23.9°C (75°F)
Dewpoint: 6.7°C (44°F) [RH = 33%]
Pressure (altimeter): 30.07 inches Hg (1018.4 mb)
[Sea-level pressure: 1016.5 mb]
Winds: from the NW (320 degrees) at 15 MPH (13 knots; 6.7 m/s)
Visibility: 10 or more miles (16+ km)
Ceiling: at least 12,000 feet AGL
Clouds: sky clear below 12,000 feet AGL
Weather: no significant weather observed at this time

METAR text: KBOI 232153Z 31011G16KT 10SM CLR 23/08 A3009 RMK AO2 SLP174 T02330078
Conditions at: KBOI (BOISE , ID, US) observed 2153 UTC 23 April 2019
Temperature: 23.3°C (74°F)
Dewpoint: 7.8°C (46°F) [RH = 37%]
Pressure (altimeter): 30.09 inches Hg (1019.0 mb)
[Sea-level pressure: 1017.4 mb]
Winds: from the NW (310 degrees) at 13 MPH (11 knots; 5.7 m/s)
gusting to 18 MPH (16 knots; 8.2 m/s)
Visibility: 10 or more miles (16+ km)
Ceiling: at least 12,000 feet AGL
Clouds: sky clear below 12,000 feet AGL
Weather: no significant weather observed at this time

METAR text: KBOI 232053Z 33008KT 10SM CLR 23/08 A3011 RMK AO2 SLP179 T02280078 56015
Conditions at: KBOI (BOISE , ID, US) observed 2053 UTC 23 April 2019
Temperature: 22.8°C (73°F)
Dewpoint: 7.8°C (46°F) [RH = 38%]
Pressure (altimeter): 30.11 inches Hg (1019.7 mb)
[Sea-level pressure: 1017.9 mb]
Winds: from the NNW (330 degrees) at 9 MPH (8 knots; 4.1 m/s)
Visibility: 10 or more miles (16+ km)
Ceiling: at least 12,000 feet AGL
Clouds: sky clear below 12,000 feet AGL
Weather: no significant weather observed at this time

METAR text: KBOI 231953Z 29008KT 10SM CLR 22/07 A3012 RMK AO2 SLP183 T02170072
Conditions at: KBOI (BOISE , ID, US) observed 1953 UTC 23 April 2019
Temperature: 21.7°C (71°F)
Dewpoint: 7.2°C (45°F) [RH = 39%]
Pressure (altimeter): 30.12 inches Hg (1020.1 mb)
[Sea-level pressure: 1018.3 mb]
Winds: from the WNW (290 degrees) at 9 MPH (8 knots; 4.1 m/s)
Visibility: 10 or more miles (16+ km)
Ceiling: at least 12,000 feet AGL
Clouds: sky clear below 12,000 feet AGL
Weather: no significant weather observed at this time

METAR text: KBOI 231853Z 29011G19KT 10SM CLR 21/07 A3014 RMK AO2 SLP191 T02110072
Conditions at: KBOI (BOISE , ID, US) observed 1853 UTC 23 April 2019
Temperature: 21.1°C (70°F)
Dewpoint: 7.2°C (45°F) [RH = 41%]
Pressure (altimeter): 30.14 inches Hg (1020.7 mb)
[Sea-level pressure: 1019.1 mb]
Winds: from the WNW (290 degrees) at 13 MPH (11 knots; 5.7 m/s)
gusting to 22 MPH (19 knots; 9.8 m/s)
Visibility: 10 or more miles (16+ km)
Ceiling: at least 12,000 feet AGL
Clouds: sky clear below 12,000 feet AGL
Weather: no significant weather observed at this time

METAR text: KBOI 231753Z 29011KT 10SM CLR 19/06 A3015 RMK AO2 SLP196 T01940056 10194 20083 58004
Conditions at: KBOI (BOISE , ID, US) observed 1753 UTC 23 April 2019
Temperature: 19.4°C (67°F)
Dewpoint: 5.6°C (42°F) [RH = 40%]
Pressure (altimeter): 30.15 inches Hg (1021.1 mb)
[Sea-level pressure: 1019.6 mb]
Winds: from the WNW (290 degrees) at 13 MPH (11 knots; 5.7 m/s)
Visibility: 10 or more miles (16+ km)
Ceiling: at least 12,000 feet AGL
Clouds: sky clear below 12,000 feet AGL
Weather: no significant weather observed at this time

METAR text: KBOI 231653Z 31007KT 10SM CLR 17/04 A3017 RMK AO2 SLP201 T01720039
Conditions at: KBOI (BOISE , ID, US) observed 1653 UTC 23 April 2019
Temperature: 17.2°C (63°F)
Dewpoint: 3.9°C (39°F) [RH = 41%]
Pressure (altimeter): 30.17 inches Hg (1021.8 mb)
[Sea-level pressure: 1020.1 mb]
Winds: from the NW (310 degrees) at 8 MPH (7 knots; 3.6 m/s)
Visibility: 10 or more miles (16+ km)
Ceiling: at least 12,000 feet AGL
Clouds: sky clear below 12,000 feet AGL
Weather: no significant weather observed at this time

METAR text: KBOI 231553Z 28003KT 10SM CLR 14/03 A3017 RMK AO2 SLP203 T01440033
Conditions at: KBOI (BOISE , ID, US) observed 1553 UTC 23 April 2019
Temperature: 14.4°C (58°F)
Dewpoint: 3.3°C (38°F) [RH = 47%]
Pressure (altimeter): 30.17 inches Hg (1021.8 mb)
[Sea-level pressure: 1020.3 mb]
Winds: from the W (280 degrees) at 3 MPH (3 knots; 1.5 m/s)
Visibility: 10 or more miles (16+ km)
Ceiling: at least 12,000 feet AGL
Clouds: sky clear below 12,000 feet AGL
Weather: no significant weather observed at this time

METAR text: KBOI 231453Z 17003KT 10SM CLR 12/04 A3017 RMK AO2 SLP206 T01220039 50008
Conditions at: KBOI (BOISE , ID, US) observed 1453 UTC 23 April 2019
Temperature: 12.2°C (54°F)
Dewpoint: 3.9°C (39°F) [RH = 57%]
Pressure (altimeter): 30.17 inches Hg (1021.8 mb)
[Sea-level pressure: 1020.6 mb]
Winds: from the S (170 degrees) at 3 MPH (3 knots; 1.5 m/s)
Visibility: 10 or more miles (16+ km)
Ceiling: at least 12,000 feet AGL
Clouds: sky clear below 12,000 feet AGL
Weather: no significant weather observed at this time

METAR text: KBOI 231353Z 14003KT 10SM CLR 09/03 A3017 RMK AO2 SLP208 T00890033
Conditions at: KBOI (BOISE , ID, US) observed 1353 UTC 23 April 2019
Temperature: 8.9°C (48°F)
Dewpoint: 3.3°C (38°F) [RH = 68%]
Pressure (altimeter): 30.17 inches Hg (1021.8 mb)
[Sea-level pressure: 1020.8 mb]
Winds: from the SE (140 degrees) at 3 MPH (3 knots; 1.5 m/s)
Visibility: 10 or more miles (16+ km)
Ceiling: at least 12,000 feet AGL
Clouds: sky clear below 12,000 feet AGL
Weather: no significant weather observed at this time

METAR text: KBOI 231253Z 12005KT 10SM CLR 08/03 A3016 RMK AO2 SLP203 T00830028
Conditions at: KBOI (BOISE , ID, US) observed 1253 UTC 23 April 2019
Temperature: 8.3°C (47°F)
Dewpoint: 2.8°C (37°F) [RH = 68%]
Pressure (altimeter): 30.16 inches Hg (1021.4 mb)
[Sea-level pressure: 1020.3 mb]
Winds: from the ESE (120 degrees) at 6 MPH (5 knots; 2.6 m/s)
Visibility: 10 or more miles (16+ km)
Ceiling: at least 12,000 feet AGL
Clouds: sky clear below 12,000 feet AGL
Weather: no significant weather observed at this time

Forecast for: KBOI (BOISE , ID, US)
Text: KBOI 242320Z 2500/2524 33010G20KT P6SM SCT150
Forecast period: 0000 to 0200 UTC 25 April 2019
Forecast type: FROM: standard forecast or significant change
Winds: from the NNW (330 degrees) at 12 MPH (10 knots; 5.1 m/s)
gusting to 23 MPH (20 knots; 10.3 m/s)
Visibility: 6 or more miles 10+ km)
Ceiling: at least 12,000 feet AGL
Clouds: scattered clouds at 15000 feet AGL
Weather: no significant weather forecast for this period
Text: FM250200 VRB05KT P6SM SKC
Forecast period: 0200 UTC 25 April 2019 to 0000 UTC 26 April 2019
Forecast type: FROM: standard forecast or significant change
Winds: variable direction winds at 6 MPH (5 knots; 2.6 m/s)
Visibility: 6 or more miles 10+ km)
Clouds: clear skies
Weather: no significant weather forecast for this period